sensor_id;sensor_type;location;lat;lon;timestamp;temperature;humidity
19279;DHT22;9773;47.062;15.446;2022-11-27T00:01:14;3.40;99.90
19279;DHT22;9773;47.062;15.446;2022-11-27T00:03:42;3.50;99.90
19279;DHT22;9773;47.062;15.446;2022-11-27T00:06:11;3.40;99.90
19279;DHT22;9773;47.062;15.446;2022-11-27T00:08:38;3.40;99.90
19279;DHT22;9773;47.062;15.446;2022-11-27T00:11:12;3.40;99.90
19279;DHT22;9773;47.062;15.446;2022-11-27T00:13:39;3.50;99.90
19279;DHT22;9773;47.062;15.446;2022-11-27T00:16:05;3.50;99.90
19279;DHT22;9773;47.062;15.446;2022-11-27T00:18:32;3.40;99.90
19279;DHT22;9773;47.062;15.446;2022-11-27T00:21:04;3.40;99.90
19279;DHT22;9773;47.062;15.446;2022-11-27T00:23:37;3.40;99.90
19279;DHT22;9773;47.062;15.446;2022-11-27T00:26:05;3.40;99.90
19279;DHT22;9773;47.062;15.446;2022-11-27T00:28:31;3.30;99.90
19279;DHT22;9773;47.062;15.446;2022-11-27T00:31:01;3.30;99.90
19279;DHT22;9773;47.062;15.446;2022-11-27T00:33:28;3.30;99.90
19279;DHT22;9773;47.062;15.446;2022-11-27T00:35:54;3.30;99.90
19279;DHT22;9773;47.062;15.446;2022-11-27T00:38:19;3.40;99.90
19279;DHT22;9773;47.062;15.446;2022-11-27T00:40:48;3.40;99.90
19279;DHT22;9773;47.062;15.446;2022-11-27T00:43:17;3.40;99.90
19279;DHT22;9773;47.062;15.446;2022-11-27T00:45:48;3.40;99.90
19279;DHT22;9773;47.062;15.446;2022-11-27T00:48:13;3.30;99.90
19279;DHT22;9773;47.062;15.446;2022-11-27T00:50:39;3.30;99.90
19279;DHT22;9773;47.062;15.446;2022-11-27T00:53:05;3.30;99.90
19279;DHT22;9773;47.062;15.446;2022-11-27T00:55:31;3.30;99.90
19279;DHT22;9773;47.062;15.446;2022-11-27T00:57:56;3.30;99.90
19279;DHT22;9773;47.062;15.446;2022-11-27T01:00:22;3.20;99.90
19279;DHT22;9773;47.062;15.446;2022-11-27T01:02:48;3.10;99.90
19279;DHT22;9773;47.062;15.446;2022-11-27T01:05:14;3.00;99.90
19279;DHT22;9773;47.062;15.446;2022-11-27T01:07:40;3.00;99.90
19279;DHT22;9773;47.062;15.446;2022-11-27T01:10:06;3.00;99.90
19279;DHT22;9773;47.062;15.446;2022-11-27T01:12:32;3.00;99.90
19279;DHT22;9773;47.062;15.446;2022-11-27T01:14:58;3.00;99.90
19279;DHT22;9773;47.062;15.446;2022-11-27T01:17:24;3.00;99.90
19279;DHT22;9773;47.062;15.446;2022-11-27T01:19:50;3.10;99.90
19279;DHT22;9773;47.062;15.446;2022-11-27T01:22:15;3.00;99.90
19279;DHT22;9773;47.062;15.446;2022-11-27T01:24:42;2.90;99.90
19279;DHT22;9773;47.062;15.446;2022-11-27T01:27:08;3.00;99.90
19279;DHT22;9773;47.062;15.446;2022-11-27T01:29:34;3.10;99.90
19279;DHT22;9773;47.062;15.446;2022-11-27T01:31:59;3.10;99.90
19279;DHT22;9773;47.062;15.446;2022-11-27T01:34:25;3.10;99.90
19279;DHT22;9773;47.062;15.446;2022-11-27T01:36:51;3.20;99.90
19279;DHT22;9773;47.062;15.446;2022-11-27T01:39:19;3.20;99.90
19279;DHT22;9773;47.062;15.446;2022-11-27T01:41:46;3.20;99.90
19279;DHT22;9773;47.062;15.446;2022-11-27T01:46:57;3.30;99.90
19279;DHT22;9773;47.062;15.446;2022-11-27T01:49:38;3.30;99.90
19279;DHT22;9773;47.062;15.446;2022-11-27T01:52:27;3.20;99.90
19279;DHT22;9773;47.062;15.446;2022-11-27T01:54:59;3.30;99.90
19279;DHT22;9773;47.062;15.446;2022-11-27T01:57:35;3.30;99.90
19279;DHT22;9773;47.062;15.446;2022-11-27T02:00:07;3.40;99.90
19279;DHT22;9773;47.062;15.446;2022-11-27T02:02:33;3.40;99.90
19279;DHT22;9773;47.062;15.446;2022-11-27T02:04:59;3.40;99.90
19279;DHT22;9773;47.062;15.446;2022-11-27T02:07:25;3.40;99.90
19279;DHT22;9773;47.062;15.446;2022-11-27T02:09:51;3.40;99.90
19279;DHT22;9773;47.062;15.446;2022-11-27T02:12:19;3.40;99.90
19279;DHT22;9773;47.062;15.446;2022-11-27T02:17:53;3.30;99.90
19279;DHT22;9773;47.062;15.446;2022-11-27T02:23:28;3.20;99.90
19279;DHT22;9773;47.062;15.446;2022-11-27T02:29:07;3.20;99.90
19279;DHT22;9773;47.062;15.446;2022-11-27T02:35:07;3.10;99.90
19279;DHT22;9773;47.062;15.446;2022-11-27T02:37:31;3.10;99.90
19279;DHT22;9773;47.062;15.446;2022-11-27T02:42:59;3.00;99.90
19279;DHT22;9773;47.062;15.446;2022-11-27T02:45:45;2.90;99.90
19279;DHT22;9773;47.062;15.446;2022-11-27T02:48:15;3.00;99.90
19279;DHT22;9773;47.062;15.446;2022-11-27T02:50:43;2.90;99.90
19279;DHT22;9773;47.062;15.446;2022-11-27T02:56:13;2.80;99.90
19279;DHT22;9773;47.062;15.446;2022-11-27T02:58:41;2.80;99.90
19279;DHT22;9773;47.062;15.446;2022-11-27T03:01:09;2.80;99.90
19279;DHT22;9773;47.062;15.446;2022-11-27T03:03:39;2.90;99.90
19279;DHT22;9773;47.062;15.446;2022-11-27T03:06:10;2.90;99.90
19279;DHT22;9773;47.062;15.446;2022-11-27T03:11:13;2.90;99.90
19279;DHT22;9773;47.062;15.446;2022-11-27T03:13:44;2.90;99.90
19279;DHT22;9773;47.062;15.446;2022-11-27T03:21:47;3.00;99.90
19279;DHT22;9773;47.062;15.446;2022-11-27T03:24:15;3.00;99.90
19279;DHT22;9773;47.062;15.446;2022-11-27T03:26:41;3.00;99.90
19279;DHT22;9773;47.062;15.446;2022-11-27T03:29:33;3.10;99.90
19279;DHT22;9773;47.062;15.446;2022-11-27T03:32:01;3.10;99.90
19279;DHT22;9773;47.062;15.446;2022-11-27T03:34:28;3.00;99.90
19279;DHT22;9773;47.062;15.446;2022-11-27T03:36:54;2.90;99.90
19279;DHT22;9773;47.062;15.446;2022-11-27T03:39:20;2.90;99.90
19279;DHT22;9773;47.062;15.446;2022-11-27T03:57:58;2.80;99.90
19279;DHT22;9773;47.062;15.446;2022-11-27T04:00:29;2.90;99.90
19279;DHT22;9773;47.062;15.446;2022-11-27T04:02:55;2.80;99.90
19279;DHT22;9773;47.062;15.446;2022-11-27T04:05:21;2.80;99.90
19279;DHT22;9773;47.062;15.446;2022-11-27T04:07:47;2.70;99.90
19279;DHT22;9773;47.062;15.446;2022-11-27T04:10:14;2.70;99.90
19279;DHT22;9773;47.062;15.446;2022-11-27T04:12:39;2.60;99.90
19279;DHT22;9773;47.062;15.446;2022-11-27T04:15:06;2.60;99.90
19279;DHT22;9773;47.062;15.446;2022-11-27T04:17:32;2.60;99.90
19279;DHT22;9773;47.062;15.446;2022-11-27T04:19:58;2.60;99.90
19279;DHT22;9773;47.062;15.446;2022-11-27T04:22:24;2.60;99.90
19279;DHT22;9773;47.062;15.446;2022-11-27T04:24:50;2.70;99.90
19279;DHT22;9773;47.062;15.446;2022-11-27T04:27:16;2.70;99.90
19279;DHT22;9773;47.062;15.446;2022-11-27T04:29:42;2.80;99.90
19279;DHT22;9773;47.062;15.446;2022-11-27T04:32:08;2.70;99.90
19279;DHT22;9773;47.062;15.446;2022-11-27T04:34:34;2.70;99.90
19279;DHT22;9773;47.062;15.446;2022-11-27T04:36:59;2.70;99.90
19279;DHT22;9773;47.062;15.446;2022-11-27T04:39:26;2.60;99.90
19279;DHT22;9773;47.062;15.446;2022-11-27T04:41:52;2.70;99.90
19279;DHT22;9773;47.062;15.446;2022-11-27T04:44:17;2.70;99.90
19279;DHT22;9773;47.062;15.446;2022-11-27T04:46:44;2.70;99.90
19279;DHT22;9773;47.062;15.446;2022-11-27T04:49:10;2.60;99.90
19279;DHT22;9773;47.062;15.446;2022-11-27T04:51:36;2.50;99.90
19279;DHT22;9773;47.062;15.446;2022-11-27T04:54:02;2.50;99.90
19279;DHT22;9773;47.062;15.446;2022-11-27T04:56:27;2.60;99.90
19279;DHT22;9773;47.062;15.446;2022-11-27T04:58:53;2.60;99.90
19279;DHT22;9773;47.062;15.446;2022-11-27T05:01:19;2.50;99.90
19279;DHT22;9773;47.062;15.446;2022-11-27T05:03:46;2.50;99.90
19279;DHT22;9773;47.062;15.446;2022-11-27T05:06:13;2.50;99.90
19279;DHT22;9773;47.062;15.446;2022-11-27T05:08:39;2.50;99.90
19279;DHT22;9773;47.062;15.446;2022-11-27T05:11:07;2.50;99.90
19279;DHT22;9773;47.062;15.446;2022-11-27T05:13:35;2.40;99.90
19279;DHT22;9773;47.062;15.446;2022-11-27T05:16:00;2.50;99.90
19279;DHT22;9773;47.062;15.446;2022-11-27T05:18:26;2.60;99.90
19279;DHT22;9773;47.062;15.446;2022-11-27T05:21:04;2.60;99.90
19279;DHT22;9773;47.062;15.446;2022-11-27T05:23:30;2.60;99.90
19279;DHT22;9773;47.062;15.446;2022-11-27T05:25:57;2.50;99.90
19279;DHT22;9773;47.062;15.446;2022-11-27T05:28:23;2.60;99.90
19279;DHT22;9773;47.062;15.446;2022-11-27T05:30:49;2.60;99.90
19279;DHT22;9773;47.062;15.446;2022-11-27T05:33:17;2.60;99.90
19279;DHT22;9773;47.062;15.446;2022-11-27T05:35:43;2.50;99.90
19279;DHT22;9773;47.062;15.446;2022-11-27T05:38:11;2.50;99.90
19279;DHT22;9773;47.062;15.446;2022-11-27T05:40:37;2.50;99.90
19279;DHT22;9773;47.062;15.446;2022-11-27T05:43:03;2.60;99.90
19279;DHT22;9773;47.062;15.446;2022-11-27T05:45:29;2.60;99.90
19279;DHT22;9773;47.062;15.446;2022-11-27T05:47:55;2.60;99.90
19279;DHT22;9773;47.062;15.446;2022-11-27T05:50:20;2.60;99.90
19279;DHT22;9773;47.062;15.446;2022-11-27T05:52:46;2.70;99.90
19279;DHT22;9773;47.062;15.446;2022-11-27T05:55:12;2.60;99.90
19279;DHT22;9773;47.062;15.446;2022-11-27T05:57:38;2.60;99.90
19279;DHT22;9773;47.062;15.446;2022-11-27T06:00:05;2.60;99.90
19279;DHT22;9773;47.062;15.446;2022-11-27T06:02:32;2.60;99.90
19279;DHT22;9773;47.062;15.446;2022-11-27T06:04:58;2.60;99.90
19279;DHT22;9773;47.062;15.446;2022-11-27T06:07:24;2.50;99.90
19279;DHT22;9773;47.062;15.446;2022-11-27T06:09:49;2.60;99.90
19279;DHT22;9773;47.062;15.446;2022-11-27T06:12:15;2.50;99.90
19279;DHT22;9773;47.062;15.446;2022-11-27T06:14:41;2.60;99.90
19279;DHT22;9773;47.062;15.446;2022-11-27T06:17:07;2.60;99.90
19279;DHT22;9773;47.062;15.446;2022-11-27T06:19:33;2.60;99.90
19279;DHT22;9773;47.062;15.446;2022-11-27T06:21:59;2.50;99.90
19279;DHT22;9773;47.062;15.446;2022-11-27T06:24:25;2.50;99.90
19279;DHT22;9773;47.062;15.446;2022-11-27T06:26:51;2.50;99.90
19279;DHT22;9773;47.062;15.446;2022-11-27T06:29:16;2.50;99.90
19279;DHT22;9773;47.062;15.446;2022-11-27T06:31:42;2.50;99.90
19279;DHT22;9773;47.062;15.446;2022-11-27T06:34:10;2.50;99.90
19279;DHT22;9773;47.062;15.446;2022-11-27T06:36:38;2.50;99.90
19279;DHT22;9773;47.062;15.446;2022-11-27T06:39:09;2.50;99.90
19279;DHT22;9773;47.062;15.446;2022-11-27T06:41:36;2.50;99.90
19279;DHT22;9773;47.062;15.446;2022-11-27T06:44:03;2.50;99.90
19279;DHT22;9773;47.062;15.446;2022-11-27T06:46:29;2.40;99.90
19279;DHT22;9773;47.062;15.446;2022-11-27T06:48:56;2.50;99.90
19279;DHT22;9773;47.062;15.446;2022-11-27T06:51:24;2.40;99.90
19279;DHT22;9773;47.062;15.446;2022-11-27T06:53:51;2.40;99.90
19279;DHT22;9773;47.062;15.446;2022-11-27T06:56:20;2.40;99.90
19279;DHT22;9773;47.062;15.446;2022-11-27T06:58:50;2.40;99.90
19279;DHT22;9773;47.062;15.446;2022-11-27T07:01:16;2.40;99.90
19279;DHT22;9773;47.062;15.446;2022-11-27T07:03:43;2.40;99.90
19279;DHT22;9773;47.062;15.446;2022-11-27T07:06:10;2.40;99.90
19279;DHT22;9773;47.062;15.446;2022-11-27T07:08:37;2.50;99.90
19279;DHT22;9773;47.062;15.446;2022-11-27T07:11:14;2.50;99.90
19279;DHT22;9773;47.062;15.446;2022-11-27T07:13:41;2.50;99.90
19279;DHT22;9773;47.062;15.446;2022-11-27T07:16:09;2.40;99.90
19279;DHT22;9773;47.062;15.446;2022-11-27T07:18:37;2.40;99.90
19279;DHT22;9773;47.062;15.446;2022-11-27T07:21:03;2.50;99.90
19279;DHT22;9773;47.062;15.446;2022-11-27T07:23:29;2.50;99.90
19279;DHT22;9773;47.062;15.446;2022-11-27T07:25:55;2.60;99.90
19279;DHT22;9773;47.062;15.446;2022-11-27T07:28:21;2.70;99.90
19279;DHT22;9773;47.062;15.446;2022-11-27T07:30:54;2.70;99.90
19279;DHT22;9773;47.062;15.446;2022-11-27T07:33:21;2.60;99.90
19279;DHT22;9773;47.062;15.446;2022-11-27T07:35:47;2.70;99.90
19279;DHT22;9773;47.062;15.446;2022-11-27T07:38:13;2.70;99.90
19279;DHT22;9773;47.062;15.446;2022-11-27T07:40:39;2.80;99.90
19279;DHT22;9773;47.062;15.446;2022-11-27T07:43:05;2.90;99.90
19279;DHT22;9773;47.062;15.446;2022-11-27T07:45:31;3.00;99.90
19279;DHT22;9773;47.062;15.446;2022-11-27T07:47:56;3.00;99.90
19279;DHT22;9773;47.062;15.446;2022-11-27T07:50:22;3.10;99.90
19279;DHT22;9773;47.062;15.446;2022-11-27T07:52:48;3.20;99.90
19279;DHT22;9773;47.062;15.446;2022-11-27T07:55:14;3.20;99.90
19279;DHT22;9773;47.062;15.446;2022-11-27T07:57:40;3.20;99.90
19279;DHT22;9773;47.062;15.446;2022-11-27T08:00:07;3.30;99.90
19279;DHT22;9773;47.062;15.446;2022-11-27T08:02:33;3.40;99.90
19279;DHT22;9773;47.062;15.446;2022-11-27T08:04:59;3.40;99.90
19279;DHT22;9773;47.062;15.446;2022-11-27T08:07:26;3.40;99.90
19279;DHT22;9773;47.062;15.446;2022-11-27T08:09:53;3.40;99.90
19279;DHT22;9773;47.062;15.446;2022-11-27T08:12:19;3.50;99.90
19279;DHT22;9773;47.062;15.446;2022-11-27T08:14:44;3.50;99.90
19279;DHT22;9773;47.062;15.446;2022-11-27T08:17:13;3.60;99.90
19279;DHT22;9773;47.062;15.446;2022-11-27T08:19:39;3.70;99.90
19279;DHT22;9773;47.062;15.446;2022-11-27T08:22:15;3.80;99.90
19279;DHT22;9773;47.062;15.446;2022-11-27T08:24:41;3.80;99.90
19279;DHT22;9773;47.062;15.446;2022-11-27T08:27:08;3.90;99.90
19279;DHT22;9773;47.062;15.446;2022-11-27T08:29:35;3.90;99.90
19279;DHT22;9773;47.062;15.446;2022-11-27T08:32:01;3.90;99.90
19279;DHT22;9773;47.062;15.446;2022-11-27T08:34:27;4.00;99.90
19279;DHT22;9773;47.062;15.446;2022-11-27T08:36:52;4.20;99.90
19279;DHT22;9773;47.062;15.446;2022-11-27T08:39:18;4.20;99.90
19279;DHT22;9773;47.062;15.446;2022-11-27T08:41:44;4.30;99.90
19279;DHT22;9773;47.062;15.446;2022-11-27T08:44:10;4.40;99.90
19279;DHT22;9773;47.062;15.446;2022-11-27T08:46:36;4.50;99.90
19279;DHT22;9773;47.062;15.446;2022-11-27T08:49:02;4.50;99.90
19279;DHT22;9773;47.062;15.446;2022-11-27T08:51:27;4.50;99.90
19279;DHT22;9773;47.062;15.446;2022-11-27T08:53:53;4.60;99.90
19279;DHT22;9773;47.062;15.446;2022-11-27T08:56:22;4.60;99.90
19279;DHT22;9773;47.062;15.446;2022-11-27T08:58:48;4.60;99.90
19279;DHT22;9773;47.062;15.446;2022-11-27T09:01:23;4.60;99.90
19279;DHT22;9773;47.062;15.446;2022-11-27T09:03:49;4.70;99.90
19279;DHT22;9773;47.062;15.446;2022-11-27T09:06:20;4.70;99.90
19279;DHT22;9773;47.062;15.446;2022-11-27T09:08:51;4.80;99.90
19279;DHT22;9773;47.062;15.446;2022-11-27T09:11:19;4.90;99.90
19279;DHT22;9773;47.062;15.446;2022-11-27T09:13:45;4.90;99.90
19279;DHT22;9773;47.062;15.446;2022-11-27T09:16:14;5.00;99.90
19279;DHT22;9773;47.062;15.446;2022-11-27T09:18:42;5.10;99.90
19279;DHT22;9773;47.062;15.446;2022-11-27T09:21:10;5.10;99.90
19279;DHT22;9773;47.062;15.446;2022-11-27T09:23:37;5.20;99.90
19279;DHT22;9773;47.062;15.446;2022-11-27T09:26:06;5.10;99.90
19279;DHT22;9773;47.062;15.446;2022-11-27T09:28:32;5.20;99.90
19279;DHT22;9773;47.062;15.446;2022-11-27T09:31:00;5.20;99.90
19279;DHT22;9773;47.062;15.446;2022-11-27T09:33:30;5.30;99.90
19279;DHT22;9773;47.062;15.446;2022-11-27T09:35:57;5.30;99.90
19279;DHT22;9773;47.062;15.446;2022-11-27T09:38:23;5.30;99.90
19279;DHT22;9773;47.062;15.446;2022-11-27T09:40:56;5.30;99.90
19279;DHT22;9773;47.062;15.446;2022-11-27T09:43:32;5.40;99.90
19279;DHT22;9773;47.062;15.446;2022-11-27T09:46:03;5.50;99.90
19279;DHT22;9773;47.062;15.446;2022-11-27T09:48:37;5.50;99.90
19279;DHT22;9773;47.062;15.446;2022-11-27T09:51:31;5.60;99.90
19279;DHT22;9773;47.062;15.446;2022-11-27T09:54:06;5.60;99.90
19279;DHT22;9773;47.062;15.446;2022-11-27T09:56:34;5.70;99.90
19279;DHT22;9773;47.062;15.446;2022-11-27T09:59:01;5.80;99.90
19279;DHT22;9773;47.062;15.446;2022-11-27T10:01:31;5.80;99.90
19279;DHT22;9773;47.062;15.446;2022-11-27T10:04:00;5.80;99.90
19279;DHT22;9773;47.062;15.446;2022-11-27T10:14:46;6.00;99.90
19279;DHT22;9773;47.062;15.446;2022-11-27T10:17:23;6.00;99.90
19279;DHT22;9773;47.062;15.446;2022-11-27T10:26:10;6.20;99.90
19279;DHT22;9773;47.062;15.446;2022-11-27T10:31:19;6.30;99.90
19279;DHT22;9773;47.062;15.446;2022-11-27T10:33:52;6.30;99.90
19279;DHT22;9773;47.062;15.446;2022-11-27T10:36:40;6.30;99.90
19279;DHT22;9773;47.062;15.446;2022-11-27T10:39:36;6.40;99.90
19279;DHT22;9773;47.062;15.446;2022-11-27T10:42:23;6.40;99.90
19279;DHT22;9773;47.062;15.446;2022-11-27T10:45:05;6.40;99.90
19279;DHT22;9773;47.062;15.446;2022-11-27T10:47:32;6.50;99.90
19279;DHT22;9773;47.062;15.446;2022-11-27T10:49:58;6.40;99.90
19279;DHT22;9773;47.062;15.446;2022-11-27T10:52:24;6.50;99.90
19279;DHT22;9773;47.062;15.446;2022-11-27T10:54:59;6.50;99.90
19279;DHT22;9773;47.062;15.446;2022-11-27T11:00:14;6.60;99.90
19279;DHT22;9773;47.062;15.446;2022-11-27T11:02:44;6.60;99.90
19279;DHT22;9773;47.062;15.446;2022-11-27T11:05:24;6.70;99.90
19279;DHT22;9773;47.062;15.446;2022-11-27T11:08:03;6.60;99.90
19279;DHT22;9773;47.062;15.446;2022-11-27T11:10:36;6.60;99.90
19279;DHT22;9773;47.062;15.446;2022-11-27T11:13:05;6.60;99.90
19279;DHT22;9773;47.062;15.446;2022-11-27T11:15:31;6.70;99.90
19279;DHT22;9773;47.062;15.446;2022-11-27T11:17:57;6.80;99.90
19279;DHT22;9773;47.062;15.446;2022-11-27T11:20:24;6.80;99.90
19279;DHT22;9773;47.062;15.446;2022-11-27T11:22:50;7.00;99.90
19279;DHT22;9773;47.062;15.446;2022-11-27T11:25:20;6.90;99.90
19279;DHT22;9773;47.062;15.446;2022-11-27T11:27:47;6.90;99.90
19279;DHT22;9773;47.062;15.446;2022-11-27T11:30:22;6.90;99.90
19279;DHT22;9773;47.062;15.446;2022-11-27T11:32:49;6.80;99.90
19279;DHT22;9773;47.062;15.446;2022-11-27T11:35:26;6.80;99.90
19279;DHT22;9773;47.062;15.446;2022-11-27T11:37:54;6.90;99.90
19279;DHT22;9773;47.062;15.446;2022-11-27T11:40:24;6.90;99.90
19279;DHT22;9773;47.062;15.446;2022-11-27T11:43:06;6.90;99.90
19279;DHT22;9773;47.062;15.446;2022-11-27T11:45:46;6.90;99.90
19279;DHT22;9773;47.062;15.446;2022-11-27T11:48:26;7.00;99.90
19279;DHT22;9773;47.062;15.446;2022-11-27T11:51:13;7.00;99.90
19279;DHT22;9773;47.062;15.446;2022-11-27T11:53:43;7.00;99.90
19279;DHT22;9773;47.062;15.446;2022-11-27T12:04:53;7.10;99.90
19279;DHT22;9773;47.062;15.446;2022-11-27T12:13:03;7.20;99.90
19279;DHT22;9773;47.062;15.446;2022-11-27T12:15:41;7.10;99.90
19279;DHT22;9773;47.062;15.446;2022-11-27T12:18:21;7.10;99.90
19279;DHT22;9773;47.062;15.446;2022-11-27T12:20:59;7.20;99.90
19279;DHT22;9773;47.062;15.446;2022-11-27T12:23:48;7.20;99.90
19279;DHT22;9773;47.062;15.446;2022-11-27T12:27:00;7.20;99.90
19279;DHT22;9773;47.062;15.446;2022-11-27T12:32:21;7.10;99.90
19279;DHT22;9773;47.062;15.446;2022-11-27T12:43:05;7.10;99.90
19279;DHT22;9773;47.062;15.446;2022-11-27T12:46:04;7.10;99.90
19279;DHT22;9773;47.062;15.446;2022-11-27T12:48:45;7.20;99.90
19279;DHT22;9773;47.062;15.446;2022-11-27T12:51:21;7.20;99.90
19279;DHT22;9773;47.062;15.446;2022-11-27T12:53:53;7.20;99.90
19279;DHT22;9773;47.062;15.446;2022-11-27T12:56:42;7.20;99.90
19279;DHT22;9773;47.062;15.446;2022-11-27T12:59:35;7.20;99.90
19279;DHT22;9773;47.062;15.446;2022-11-27T13:02:30;7.20;99.90
19279;DHT22;9773;47.062;15.446;2022-11-27T13:05:06;7.20;99.90
19279;DHT22;9773;47.062;15.446;2022-11-27T13:07:48;7.20;99.90
19279;DHT22;9773;47.062;15.446;2022-11-27T13:10:46;7.20;99.90
19279;DHT22;9773;47.062;15.446;2022-11-27T13:21:38;7.30;99.90
19279;DHT22;9773;47.062;15.446;2022-11-27T13:24:08;7.30;99.90
19279;DHT22;9773;47.062;15.446;2022-11-27T13:26:45;7.30;99.90
19279;DHT22;9773;47.062;15.446;2022-11-27T13:29:22;7.30;99.90
19279;DHT22;9773;47.062;15.446;2022-11-27T13:31:55;7.40;99.90
19279;DHT22;9773;47.062;15.446;2022-11-27T13:34:23;7.50;99.90
19279;DHT22;9773;47.062;15.446;2022-11-27T13:37:04;7.50;99.90
19279;DHT22;9773;47.062;15.446;2022-11-27T13:39:34;7.40;99.90
19279;DHT22;9773;47.062;15.446;2022-11-27T13:44:40;7.30;99.90
19279;DHT22;9773;47.062;15.446;2022-11-27T13:47:13;7.20;99.90
19279;DHT22;9773;47.062;15.446;2022-11-27T13:49:40;7.20;99.90
19279;DHT22;9773;47.062;15.446;2022-11-27T13:52:17;7.20;99.90
19279;DHT22;9773;47.062;15.446;2022-11-27T13:55:00;7.20;99.90
19279;DHT22;9773;47.062;15.446;2022-11-27T13:57:28;7.20;99.90
19279;DHT22;9773;47.062;15.446;2022-11-27T14:00:05;7.30;99.90
19279;DHT22;9773;47.062;15.446;2022-11-27T14:02:46;7.20;99.90
19279;DHT22;9773;47.062;15.446;2022-11-27T14:05:17;7.20;99.90
19279;DHT22;9773;47.062;15.446;2022-11-27T14:07:49;7.20;99.90
19279;DHT22;9773;47.062;15.446;2022-11-27T14:10:20;7.10;99.90
19279;DHT22;9773;47.062;15.446;2022-11-27T14:13:04;7.10;99.90
19279;DHT22;9773;47.062;15.446;2022-11-27T14:15:40;7.10;99.90
19279;DHT22;9773;47.062;15.446;2022-11-27T14:18:15;7.10;99.90
19279;DHT22;9773;47.062;15.446;2022-11-27T14:20:53;7.10;99.90
19279;DHT22;9773;47.062;15.446;2022-11-27T14:23:30;7.00;99.90
19279;DHT22;9773;47.062;15.446;2022-11-27T14:28:47;7.00;99.90
19279;DHT22;9773;47.062;15.446;2022-11-27T14:31:39;7.00;99.90
19279;DHT22;9773;47.062;15.446;2022-11-27T14:34:27;6.90;99.90
19279;DHT22;9773;47.062;15.446;2022-11-27T14:36:53;6.80;99.90
19279;DHT22;9773;47.062;15.446;2022-11-27T14:39:37;6.90;99.90
19279;DHT22;9773;47.062;15.446;2022-11-27T14:42:05;6.80;99.90
19279;DHT22;9773;47.062;15.446;2022-11-27T14:44:33;6.80;99.90
19279;DHT22;9773;47.062;15.446;2022-11-27T14:47:02;6.70;99.90
19279;DHT22;9773;47.062;15.446;2022-11-27T14:49:31;6.70;99.90
19279;DHT22;9773;47.062;15.446;2022-11-27T14:52:03;6.70;99.90
19279;DHT22;9773;47.062;15.446;2022-11-27T14:54:37;6.70;99.90
19279;DHT22;9773;47.062;15.446;2022-11-27T14:57:04;6.70;99.90
19279;DHT22;9773;47.062;15.446;2022-11-27T14:59:46;6.60;99.90
19279;DHT22;9773;47.062;15.446;2022-11-27T15:04:43;6.50;99.90
19279;DHT22;9773;47.062;15.446;2022-11-27T15:07:17;6.50;99.90
19279;DHT22;9773;47.062;15.446;2022-11-27T15:09:48;6.50;99.90
19279;DHT22;9773;47.062;15.446;2022-11-27T15:12:32;6.40;99.90
19279;DHT22;9773;47.062;15.446;2022-11-27T15:14:59;6.40;99.90
19279;DHT22;9773;47.062;15.446;2022-11-27T15:17:35;6.40;99.90
19279;DHT22;9773;47.062;15.446;2022-11-27T15:20:15;6.30;99.90
19279;DHT22;9773;47.062;15.446;2022-11-27T15:22:49;6.30;99.90
19279;DHT22;9773;47.062;15.446;2022-11-27T15:25:33;6.30;99.90
19279;DHT22;9773;47.062;15.446;2022-11-27T15:27:59;6.30;99.90
19279;DHT22;9773;47.062;15.446;2022-11-27T15:30:25;6.20;99.90
19279;DHT22;9773;47.062;15.446;2022-11-27T15:32:52;6.20;99.90
19279;DHT22;9773;47.062;15.446;2022-11-27T15:35:25;6.40;99.90
19279;DHT22;9773;47.062;15.446;2022-11-27T15:37:55;6.30;99.90
19279;DHT22;9773;47.062;15.446;2022-11-27T15:40:34;6.20;99.90
19279;DHT22;9773;47.062;15.446;2022-11-27T15:43:11;6.20;99.90
19279;DHT22;9773;47.062;15.446;2022-11-27T15:45:38;6.10;99.90
19279;DHT22;9773;47.062;15.446;2022-11-27T15:48:04;6.20;99.90
19279;DHT22;9773;47.062;15.446;2022-11-27T15:50:30;6.20;99.90
19279;DHT22;9773;47.062;15.446;2022-11-27T15:52:58;6.20;99.90
19279;DHT22;9773;47.062;15.446;2022-11-27T15:55:25;6.20;99.90
19279;DHT22;9773;47.062;15.446;2022-11-27T15:57:51;6.10;99.90
19279;DHT22;9773;47.062;15.446;2022-11-27T16:00:17;6.00;99.90
19279;DHT22;9773;47.062;15.446;2022-11-27T16:02:47;5.90;99.90
19279;DHT22;9773;47.062;15.446;2022-11-27T16:05:13;5.90;99.90
19279;DHT22;9773;47.062;15.446;2022-11-27T16:07:39;5.70;99.90
19279;DHT22;9773;47.062;15.446;2022-11-27T16:10:05;5.60;99.90
19279;DHT22;9773;47.062;15.446;2022-11-27T16:12:31;5.50;99.90
19279;DHT22;9773;47.062;15.446;2022-11-27T16:14:59;5.50;99.90
19279;DHT22;9773;47.062;15.446;2022-11-27T16:17:25;5.50;99.90
19279;DHT22;9773;47.062;15.446;2022-11-27T16:19:51;5.50;99.90
19279;DHT22;9773;47.062;15.446;2022-11-27T16:22:18;5.50;99.90
19279;DHT22;9773;47.062;15.446;2022-11-27T16:24:44;5.40;99.90
19279;DHT22;9773;47.062;15.446;2022-11-27T16:27:10;5.40;99.90
19279;DHT22;9773;47.062;15.446;2022-11-27T16:29:37;5.40;99.90
19279;DHT22;9773;47.062;15.446;2022-11-27T16:32:04;5.30;99.90
19279;DHT22;9773;47.062;15.446;2022-11-27T16:34:30;5.30;99.90
19279;DHT22;9773;47.062;15.446;2022-11-27T16:36:56;5.30;99.90
19279;DHT22;9773;47.062;15.446;2022-11-27T16:39:22;5.20;99.90
19279;DHT22;9773;47.062;15.446;2022-11-27T16:41:48;5.10;99.90
19279;DHT22;9773;47.062;15.446;2022-11-27T16:44:14;5.00;99.90
19279;DHT22;9773;47.062;15.446;2022-11-27T16:46:41;5.00;99.90
19279;DHT22;9773;47.062;15.446;2022-11-27T16:49:09;5.00;99.90
19279;DHT22;9773;47.062;15.446;2022-11-27T16:51:37;4.90;99.90
19279;DHT22;9773;47.062;15.446;2022-11-27T16:54:06;4.90;99.90
19279;DHT22;9773;47.062;15.446;2022-11-27T16:56:34;4.80;99.90
19279;DHT22;9773;47.062;15.446;2022-11-27T16:59:01;4.80;99.90
19279;DHT22;9773;47.062;15.446;2022-11-27T17:01:33;4.80;99.90
19279;DHT22;9773;47.062;15.446;2022-11-27T17:04:01;4.80;99.90
19279;DHT22;9773;47.062;15.446;2022-11-27T17:06:31;4.70;99.90
19279;DHT22;9773;47.062;15.446;2022-11-27T17:08:59;4.70;99.90
19279;DHT22;9773;47.062;15.446;2022-11-27T17:11:27;4.70;99.90
19279;DHT22;9773;47.062;15.446;2022-11-27T17:13:59;4.70;99.90
19279;DHT22;9773;47.062;15.446;2022-11-27T17:16:26;4.60;99.90
19279;DHT22;9773;47.062;15.446;2022-11-27T17:18:52;4.50;99.90
19279;DHT22;9773;47.062;15.446;2022-11-27T17:21:24;4.50;99.90
19279;DHT22;9773;47.062;15.446;2022-11-27T17:24:04;4.40;99.90
19279;DHT22;9773;47.062;15.446;2022-11-27T17:26:32;4.40;99.90
19279;DHT22;9773;47.062;15.446;2022-11-27T17:28:59;4.40;99.90
19279;DHT22;9773;47.062;15.446;2022-11-27T17:31:29;4.50;99.90
19279;DHT22;9773;47.062;15.446;2022-11-27T17:33:58;4.40;99.90
19279;DHT22;9773;47.062;15.446;2022-11-27T17:36:26;4.40;99.90
19279;DHT22;9773;47.062;15.446;2022-11-27T17:38:52;4.40;99.90
19279;DHT22;9773;47.062;15.446;2022-11-27T17:41:20;4.40;99.90
19279;DHT22;9773;47.062;15.446;2022-11-27T17:43:47;4.40;99.90
19279;DHT22;9773;47.062;15.446;2022-11-27T17:46:22;4.40;99.90
19279;DHT22;9773;47.062;15.446;2022-11-27T17:48:49;4.40;99.90